sensor_id;sensor_type;location;lat;lon;timestamp;P1;durP1;ratioP1;P2;durP2;ratioP2
66175;SDS011;52977;44.816;20.538;2024-01-15T00:00:11;14.20;;;6.00;;
66175;SDS011;52977;44.816;20.538;2024-01-15T00:02:37;15.70;;;6.13;;
66175;SDS011;52977;44.816;20.538;2024-01-15T00:05:03;14.85;;;5.90;;
66175;SDS011;52977;44.816;20.538;2024-01-15T00:07:29;14.27;;;5.38;;
66175;SDS011;52977;44.816;20.538;2024-01-15T00:09:55;12.13;;;5.40;;
66175;SDS011;52977;44.816;20.538;2024-01-15T00:12:21;12.73;;;5.63;;
66175;SDS011;52977;44.816;20.538;2024-01-15T00:14:46;11.52;;;4.63;;
66175;SDS011;52977;44.816;20.538;2024-01-15T00:17:12;11.05;;;5.32;;
66175;SDS011;52977;44.816;20.538;2024-01-15T00:19:39;10.05;;;4.43;;
66175;SDS011;52977;44.816;20.538;2024-01-15T00:22:05;9.40;;;4.70;;
66175;SDS011;52977;44.816;20.538;2024-01-15T00:24:31;11.02;;;5.35;;
66175;SDS011;52977;44.816;20.538;2024-01-15T00:26:58;11.13;;;4.88;;
66175;SDS011;52977;44.816;20.538;2024-01-15T00:29:24;12.93;;;4.88;;
66175;SDS011;52977;44.816;20.538;2024-01-15T00:31:50;10.48;;;4.55;;
66175;SDS011;52977;44.816;20.538;2024-01-15T00:34:16;9.68;;;4.88;;
66175;SDS011;52977;44.816;20.538;2024-01-15T00:36:43;12.38;;;5.03;;
66175;SDS011;52977;44.816;20.538;2024-01-15T00:39:09;15.75;;;5.20;;
66175;SDS011;52977;44.816;20.538;2024-01-15T00:41:36;11.35;;;4.80;;
66175;SDS011;52977;44.816;20.538;2024-01-15T00:44:02;10.90;;;4.70;;
66175;SDS011;52977;44.816;20.538;2024-01-15T00:46:29;9.90;;;4.63;;
66175;SDS011;52977;44.816;20.538;2024-01-15T00:48:55;10.35;;;3.95;;
66175;SDS011;52977;44.816;20.538;2024-01-15T00:51:21;9.15;;;3.90;;
66175;SDS011;52977;44.816;20.538;2024-01-15T00:53:47;10.68;;;4.13;;
66175;SDS011;52977;44.816;20.538;2024-01-15T00:56:13;8.68;;;4.15;;
66175;SDS011;52977;44.816;20.538;2024-01-15T00:58:39;14.38;;;4.28;;
66175;SDS011;52977;44.816;20.538;2024-01-15T01:01:06;9.65;;;3.75;;
66175;SDS011;52977;44.816;20.538;2024-01-15T01:03:32;9.98;;;3.95;;
66175;SDS011;52977;44.816;20.538;2024-01-15T01:05:58;8.48;;;3.88;;
66175;SDS011;52977;44.816;20.538;2024-01-15T01:08:24;8.95;;;3.70;;
66175;SDS011;52977;44.816;20.538;2024-01-15T01:10:50;6.75;;;3.47;;
66175;SDS011;52977;44.816;20.538;2024-01-15T01:13:17;8.75;;;3.15;;
66175;SDS011;52977;44.816;20.538;2024-01-15T01:15:43;7.18;;;3.17;;
66175;SDS011;52977;44.816;20.538;2024-01-15T01:18:09;7.45;;;3.30;;
66175;SDS011;52977;44.816;20.538;2024-01-15T01:20:35;6.72;;;3.42;;
66175;SDS011;52977;44.816;20.538;2024-01-15T01:23:02;7.85;;;3.15;;
66175;SDS011;52977;44.816;20.538;2024-01-15T01:25:29;9.70;;;4.00;;
66175;SDS011;52977;44.816;20.538;2024-01-15T01:27:55;8.43;;;3.85;;
66175;SDS011;52977;44.816;20.538;2024-01-15T01:30:21;8.07;;;3.20;;
66175;SDS011;52977;44.816;20.538;2024-01-15T01:32:47;9.80;;;3.50;;
66175;SDS011;52977;44.816;20.538;2024-01-15T01:35:13;8.35;;;3.72;;
66175;SDS011;52977;44.816;20.538;2024-01-15T01:37:40;7.72;;;3.60;;
66175;SDS011;52977;44.816;20.538;2024-01-15T01:40:06;7.65;;;3.05;;
66175;SDS011;52977;44.816;20.538;2024-01-15T01:42:33;8.05;;;3.22;;
66175;SDS011;52977;44.816;20.538;2024-01-15T01:44:59;8.73;;;4.03;;
66175;SDS011;52977;44.816;20.538;2024-01-15T01:47:26;8.65;;;3.00;;
66175;SDS011;52977;44.816;20.538;2024-01-15T01:49:52;8.88;;;3.05;;
66175;SDS011;52977;44.816;20.538;2024-01-15T01:52:19;8.27;;;3.13;;
66175;SDS011;52977;44.816;20.538;2024-01-15T01:54:46;7.97;;;3.60;;
66175;SDS011;52977;44.816;20.538;2024-01-15T01:57:13;7.43;;;3.33;;
66175;SDS011;52977;44.816;20.538;2024-01-15T01:59:40;7.15;;;2.80;;
66175;SDS011;52977;44.816;20.538;2024-01-15T02:02:07;8.65;;;3.47;;
66175;SDS011;52977;44.816;20.538;2024-01-15T02:04:33;8.45;;;3.22;;
66175;SDS011;52977;44.816;20.538;2024-01-15T02:07:01;7.97;;;3.05;;
66175;SDS011;52977;44.816;20.538;2024-01-15T02:09:28;7.07;;;3.28;;
66175;SDS011;52977;44.816;20.538;2024-01-15T02:11:54;7.75;;;2.60;;
66175;SDS011;52977;44.816;20.538;2024-01-15T02:14:20;6.40;;;2.58;;
66175;SDS011;52977;44.816;20.538;2024-01-15T02:16:47;7.15;;;3.10;;
66175;SDS011;52977;44.816;20.538;2024-01-15T02:19:17;5.50;;;2.95;;
66175;SDS011;52977;44.816;20.538;2024-01-15T02:21:44;9.10;;;3.03;;
66175;SDS011;52977;44.816;20.538;2024-01-15T02:24:10;7.78;;;3.10;;
66175;SDS011;52977;44.816;20.538;2024-01-15T02:26:36;5.85;;;2.42;;
66175;SDS011;52977;44.816;20.538;2024-01-15T02:29:04;7.90;;;3.13;;
66175;SDS011;52977;44.816;20.538;2024-01-15T02:31:33;5.55;;;2.90;;
66175;SDS011;52977;44.816;20.538;2024-01-15T02:33:59;5.72;;;2.80;;
66175;SDS011;52977;44.816;20.538;2024-01-15T02:36:25;7.72;;;3.28;;
66175;SDS011;52977;44.816;20.538;2024-01-15T02:38:52;7.68;;;2.92;;
66175;SDS011;52977;44.816;20.538;2024-01-15T02:41:18;5.70;;;2.95;;
66175;SDS011;52977;44.816;20.538;2024-01-15T02:43:44;5.50;;;2.85;;
66175;SDS011;52977;44.816;20.538;2024-01-15T02:46:11;9.75;;;3.50;;
66175;SDS011;52977;44.816;20.538;2024-01-15T02:48:37;6.78;;;2.92;;
66175;SDS011;52977;44.816;20.538;2024-01-15T02:51:03;6.78;;;3.03;;
66175;SDS011;52977;44.816;20.538;2024-01-15T02:53:28;6.70;;;3.35;;
66175;SDS011;52977;44.816;20.538;2024-01-15T02:55:54;6.68;;;2.70;;
66175;SDS011;52977;44.816;20.538;2024-01-15T02:58:20;8.02;;;3.83;;
66175;SDS011;52977;44.816;20.538;2024-01-15T03:00:46;8.30;;;3.40;;
66175;SDS011;52977;44.816;20.538;2024-01-15T03:03:12;6.80;;;3.22;;
66175;SDS011;52977;44.816;20.538;2024-01-15T03:05:38;7.32;;;2.97;;
66175;SDS011;52977;44.816;20.538;2024-01-15T03:08:03;6.30;;;2.60;;
66175;SDS011;52977;44.816;20.538;2024-01-15T03:10:30;7.30;;;2.88;;
66175;SDS011;52977;44.816;20.538;2024-01-15T03:12:55;6.38;;;2.90;;
66175;SDS011;52977;44.816;20.538;2024-01-15T03:15:22;8.23;;;3.38;;
66175;SDS011;52977;44.816;20.538;2024-01-15T03:17:48;7.43;;;3.13;;
66175;SDS011;52977;44.816;20.538;2024-01-15T03:20:13;6.95;;;3.50;;
66175;SDS011;52977;44.816;20.538;2024-01-15T03:22:39;7.43;;;3.17;;
66175;SDS011;52977;44.816;20.538;2024-01-15T03:25:05;7.53;;;3.20;;
66175;SDS011;52977;44.816;20.538;2024-01-15T03:27:31;8.85;;;3.80;;
66175;SDS011;52977;44.816;20.538;2024-01-15T03:29:57;7.40;;;3.72;;
66175;SDS011;52977;44.816;20.538;2024-01-15T03:32:24;9.57;;;3.20;;
66175;SDS011;52977;44.816;20.538;2024-01-15T03:34:49;10.20;;;3.70;;
66175;SDS011;52977;44.816;20.538;2024-01-15T03:37:17;8.30;;;3.25;;
66175;SDS011;52977;44.816;20.538;2024-01-15T03:39:43;8.18;;;3.05;;
66175;SDS011;52977;44.816;20.538;2024-01-15T03:42:10;7.45;;;3.33;;
66175;SDS011;52977;44.816;20.538;2024-01-15T03:44:35;7.55;;;3.05;;
66175;SDS011;52977;44.816;20.538;2024-01-15T03:47:01;6.13;;;2.70;;
66175;SDS011;52977;44.816;20.538;2024-01-15T03:49:26;5.43;;;2.83;;
66175;SDS011;52977;44.816;20.538;2024-01-15T03:51:52;6.63;;;2.83;;
66175;SDS011;52977;44.816;20.538;2024-01-15T03:54:18;4.85;;;2.38;;
66175;SDS011;52977;44.816;20.538;2024-01-15T03:56:45;5.68;;;2.28;;
66175;SDS011;52977;44.816;20.538;2024-01-15T03:59:11;6.50;;;2.72;;
66175;SDS011;52977;44.816;20.538;2024-01-15T04:01:37;6.25;;;2.63;;
66175;SDS011;52977;44.816;20.538;2024-01-15T04:04:03;6.38;;;2.85;;
66175;SDS011;52977;44.816;20.538;2024-01-15T04:06:30;5.60;;;2.58;;
66175;SDS011;52977;44.816;20.538;2024-01-15T04:08:56;5.63;;;2.60;;
66175;SDS011;52977;44.816;20.538;2024-01-15T04:11:22;4.47;;;2.15;;
66175;SDS011;52977;44.816;20.538;2024-01-15T04:13:49;13.05;;;2.38;;
66175;SDS011;52977;44.816;20.538;2024-01-15T04:16:15;4.15;;;2.05;;
66175;SDS011;52977;44.816;20.538;2024-01-15T04:18:41;7.50;;;2.40;;
66175;SDS011;52977;44.816;20.538;2024-01-15T04:21:07;4.10;;;1.77;;
66175;SDS011;52977;44.816;20.538;2024-01-15T04:23:34;5.40;;;2.10;;
66175;SDS011;52977;44.816;20.538;2024-01-15T04:26:00;4.50;;;2.33;;
66175;SDS011;52977;44.816;20.538;2024-01-15T04:28:26;4.10;;;1.80;;
66175;SDS011;52977;44.816;20.538;2024-01-15T04:30:53;4.15;;;1.90;;
66175;SDS011;52977;44.816;20.538;2024-01-15T04:33:19;5.38;;;2.10;;
66175;SDS011;52977;44.816;20.538;2024-01-15T04:35:45;5.97;;;2.58;;
66175;SDS011;52977;44.816;20.538;2024-01-15T04:38:11;4.40;;;2.22;;
66175;SDS011;52977;44.816;20.538;2024-01-15T04:40:38;5.90;;;2.65;;
66175;SDS011;52977;44.816;20.538;2024-01-15T04:43:04;8.15;;;3.78;;
66175;SDS011;52977;44.816;20.538;2024-01-15T04:45:30;11.25;;;4.80;;
66175;SDS011;52977;44.816;20.538;2024-01-15T04:47:57;11.05;;;4.20;;
66175;SDS011;52977;44.816;20.538;2024-01-15T04:50:23;8.35;;;3.83;;
66175;SDS011;52977;44.816;20.538;2024-01-15T04:52:49;10.57;;;4.30;;
66175;SDS011;52977;44.816;20.538;2024-01-15T04:55:16;8.10;;;3.67;;
66175;SDS011;52977;44.816;20.538;2024-01-15T04:57:42;12.45;;;5.07;;
66175;SDS011;52977;44.816;20.538;2024-01-15T05:00:08;10.88;;;5.45;;
66175;SDS011;52977;44.816;20.538;2024-01-15T05:02:35;11.35;;;5.60;;
66175;SDS011;52977;44.816;20.538;2024-01-15T05:05:04;8.75;;;4.47;;
66175;SDS011;52977;44.816;20.538;2024-01-15T05:07:29;12.90;;;5.97;;
66175;SDS011;52977;44.816;20.538;2024-01-15T05:09:55;10.27;;;5.30;;
66175;SDS011;52977;44.816;20.538;2024-01-15T05:12:21;11.80;;;4.90;;
66175;SDS011;52977;44.816;20.538;2024-01-15T05:14:48;11.68;;;4.93;;
66175;SDS011;52977;44.816;20.538;2024-01-15T05:17:14;12.85;;;5.38;;
66175;SDS011;52977;44.816;20.538;2024-01-15T05:19:40;11.45;;;5.18;;
66175;SDS011;52977;44.816;20.538;2024-01-15T05:22:07;13.55;;;5.90;;
66175;SDS011;52977;44.816;20.538;2024-01-15T05:24:33;11.95;;;4.88;;
66175;SDS011;52977;44.816;20.538;2024-01-15T05:26:58;8.40;;;4.13;;
66175;SDS011;52977;44.816;20.538;2024-01-15T05:29:24;11.45;;;5.00;;
66175;SDS011;52977;44.816;20.538;2024-01-15T05:31:50;10.38;;;4.38;;
66175;SDS011;52977;44.816;20.538;2024-01-15T05:34:15;9.05;;;4.30;;
66175;SDS011;52977;44.816;20.538;2024-01-15T05:36:42;7.72;;;3.88;;
66175;SDS011;52977;44.816;20.538;2024-01-15T05:39:08;6.82;;;3.17;;
66175;SDS011;52977;44.816;20.538;2024-01-15T05:41:34;6.30;;;3.00;;
66175;SDS011;52977;44.816;20.538;2024-01-15T05:44:01;7.28;;;3.35;;
66175;SDS011;52977;44.816;20.538;2024-01-15T05:46:27;6.68;;;3.25;;
66175;SDS011;52977;44.816;20.538;2024-01-15T05:48:53;10.52;;;4.35;;
66175;SDS011;52977;44.816;20.538;2024-01-15T05:51:19;8.98;;;4.35;;
66175;SDS011;52977;44.816;20.538;2024-01-15T05:53:46;9.48;;;4.25;;
66175;SDS011;52977;44.816;20.538;2024-01-15T05:56:12;8.95;;;4.10;;
66175;SDS011;52977;44.816;20.538;2024-01-15T05:58:38;7.55;;;3.72;;
66175;SDS011;52977;44.816;20.538;2024-01-15T06:01:03;8.80;;;4.05;;
66175;SDS011;52977;44.816;20.538;2024-01-15T06:03:29;10.68;;;4.57;;
66175;SDS011;52977;44.816;20.538;2024-01-15T06:05:55;10.80;;;4.53;;
66175;SDS011;52977;44.816;20.538;2024-01-15T06:08:21;9.65;;;4.03;;
66175;SDS011;52977;44.816;20.538;2024-01-15T06:10:47;10.68;;;4.55;;
66175;SDS011;52977;44.816;20.538;2024-01-15T06:13:13;9.40;;;3.95;;
66175;SDS011;52977;44.816;20.538;2024-01-15T06:15:40;9.23;;;4.30;;
66175;SDS011;52977;44.816;20.538;2024-01-15T06:18:06;9.63;;;3.83;;
66175;SDS011;52977;44.816;20.538;2024-01-15T06:20:32;8.20;;;3.95;;
66175;SDS011;52977;44.816;20.538;2024-01-15T06:22:58;9.68;;;4.10;;
66175;SDS011;52977;44.816;20.538;2024-01-15T06:25:25;13.98;;;6.20;;
66175;SDS011;52977;44.816;20.538;2024-01-15T06:27:51;15.75;;;7.05;;
66175;SDS011;52977;44.816;20.538;2024-01-15T06:30:17;13.15;;;6.82;;
66175;SDS011;52977;44.816;20.538;2024-01-15T06:32:43;12.63;;;5.82;;
66175;SDS011;52977;44.816;20.538;2024-01-15T06:35:10;9.45;;;5.15;;
66175;SDS011;52977;44.816;20.538;2024-01-15T06:37:37;13.68;;;5.40;;
66175;SDS011;52977;44.816;20.538;2024-01-15T06:40:03;9.60;;;4.50;;
66175;SDS011;52977;44.816;20.538;2024-01-15T06:42:31;14.15;;;5.93;;
66175;SDS011;52977;44.816;20.538;2024-01-15T06:44:58;14.57;;;6.20;;
66175;SDS011;52977;44.816;20.538;2024-01-15T06:47:24;12.48;;;5.47;;
66175;SDS011;52977;44.816;20.538;2024-01-15T06:49:50;13.85;;;5.90;;
66175;SDS011;52977;44.816;20.538;2024-01-15T06:52:17;12.27;;;5.00;;
66175;SDS011;52977;44.816;20.538;2024-01-15T06:54:44;13.10;;;5.38;;
66175;SDS011;52977;44.816;20.538;2024-01-15T06:57:10;12.00;;;5.22;;
66175;SDS011;52977;44.816;20.538;2024-01-15T06:59:37;11.27;;;5.45;;
66175;SDS011;52977;44.816;20.538;2024-01-15T07:02:03;13.20;;;5.78;;
66175;SDS011;52977;44.816;20.538;2024-01-15T07:04:29;14.82;;;5.07;;
66175;SDS011;52977;44.816;20.538;2024-01-15T07:06:55;11.50;;;4.97;;
66175;SDS011;52977;44.816;20.538;2024-01-15T07:09:21;10.93;;;4.57;;
66175;SDS011;52977;44.816;20.538;2024-01-15T07:11:48;10.60;;;4.88;;
66175;SDS011;52977;44.816;20.538;2024-01-15T07:14:14;8.60;;;3.88;;
66175;SDS011;52977;44.816;20.538;2024-01-15T07:16:41;9.80;;;4.47;;
66175;SDS011;52977;44.816;20.538;2024-01-15T07:19:07;11.50;;;5.18;;
66175;SDS011;52977;44.816;20.538;2024-01-15T07:21:33;10.15;;;4.40;;
66175;SDS011;52977;44.816;20.538;2024-01-15T07:23:59;10.88;;;5.10;;
66175;SDS011;52977;44.816;20.538;2024-01-15T07:26:25;10.75;;;5.38;;
66175;SDS011;52977;44.816;20.538;2024-01-15T07:28:51;12.75;;;5.13;;
66175;SDS011;52977;44.816;20.538;2024-01-15T07:31:17;15.35;;;6.13;;
66175;SDS011;52977;44.816;20.538;2024-01-15T07:33:43;11.18;;;5.82;;
66175;SDS011;52977;44.816;20.538;2024-01-15T07:36:09;11.32;;;4.97;;
66175;SDS011;52977;44.816;20.538;2024-01-15T07:38:36;11.80;;;5.20;;
66175;SDS011;52977;44.816;20.538;2024-01-15T07:41:02;13.05;;;6.18;;
66175;SDS011;52977;44.816;20.538;2024-01-15T07:43:29;11.93;;;4.78;;
66175;SDS011;52977;44.816;20.538;2024-01-15T07:45:56;13.80;;;6.20;;
66175;SDS011;52977;44.816;20.538;2024-01-15T07:48:23;17.83;;;6.40;;
66175;SDS011;52977;44.816;20.538;2024-01-15T07:50:49;15.07;;;6.72;;
66175;SDS011;52977;44.816;20.538;2024-01-15T07:53:15;14.65;;;6.57;;
66175;SDS011;52977;44.816;20.538;2024-01-15T07:55:42;16.10;;;6.53;;
66175;SDS011;52977;44.816;20.538;2024-01-15T07:58:08;16.30;;;6.10;;
66175;SDS011;52977;44.816;20.538;2024-01-15T08:00:34;14.60;;;5.93;;
66175;SDS011;52977;44.816;20.538;2024-01-15T08:03:00;12.75;;;6.22;;
66175;SDS011;52977;44.816;20.538;2024-01-15T08:05:28;12.98;;;6.22;;
66175;SDS011;52977;44.816;20.538;2024-01-15T08:07:55;17.80;;;7.03;;
66175;SDS011;52977;44.816;20.538;2024-01-15T08:10:21;16.80;;;6.20;;
66175;SDS011;52977;44.816;20.538;2024-01-15T08:12:47;16.00;;;6.57;;
66175;SDS011;52977;44.816;20.538;2024-01-15T08:15:13;17.75;;;7.75;;
66175;SDS011;52977;44.816;20.538;2024-01-15T08:17:40;17.13;;;7.55;;
66175;SDS011;52977;44.816;20.538;2024-01-15T08:20:06;14.77;;;6.70;;
66175;SDS011;52977;44.816;20.538;2024-01-15T08:22:32;13.00;;;6.03;;
66175;SDS011;52977;44.816;20.538;2024-01-15T08:24:58;14.40;;;6.38;;
66175;SDS011;52977;44.816;20.538;2024-01-15T08:27:23;14.02;;;5.95;;
66175;SDS011;52977;44.816;20.538;2024-01-15T08:29:50;17.75;;;6.43;;
66175;SDS011;52977;44.816;20.538;2024-01-15T08:32:16;14.25;;;6.38;;
66175;SDS011;52977;44.816;20.538;2024-01-15T08:34:42;11.13;;;5.57;;
66175;SDS011;52977;44.816;20.538;2024-01-15T08:37:09;12.52;;;5.78;;
66175;SDS011;52977;44.816;20.538;2024-01-15T08:39:35;17.48;;;7.53;;
66175;SDS011;52977;44.816;20.538;2024-01-15T08:42:05;15.10;;;6.55;;
66175;SDS011;52977;44.816;20.538;2024-01-15T08:44:31;15.07;;;6.20;;
66175;SDS011;52977;44.816;20.538;2024-01-15T08:46:57;15.57;;;6.18;;
66175;SDS011;52977;44.816;20.538;2024-01-15T08:49:24;13.77;;;5.70;;
66175;SDS011;52977;44.816;20.538;2024-01-15T08:51:50;13.02;;;5.80;;
66175;SDS011;52977;44.816;20.538;2024-01-15T08:54:16;10.82;;;5.47;;
66175;SDS011;52977;44.816;20.538;2024-01-15T08:56:44;10.13;;;4.78;;
66175;SDS011;52977;44.816;20.538;2024-01-15T08:59:10;12.10;;;5.57;;
66175;SDS011;52977;44.816;20.538;2024-01-15T09:01:38;10.75;;;4.93;;
66175;SDS011;52977;44.816;20.538;2024-01-15T09:04:05;11.43;;;5.68;;
66175;SDS011;52977;44.816;20.538;2024-01-15T09:06:31;17.38;;;7.60;;
66175;SDS011;52977;44.816;20.538;2024-01-15T09:08:58;19.85;;;8.00;;
66175;SDS011;52977;44.816;20.538;2024-01-15T09:11:25;19.10;;;7.70;;
66175;SDS011;52977;44.816;20.538;2024-01-15T09:13:50;13.10;;;6.80;;
66175;SDS011;52977;44.816;20.538;2024-01-15T09:16:17;17.77;;;7.63;;
66175;SDS011;52977;44.816;20.538;2024-01-15T09:18:43;17.80;;;8.43;;
66175;SDS011;52977;44.816;20.538;2024-01-15T09:21:08;18.35;;;8.38;;
66175;SDS011;52977;44.816;20.538;2024-01-15T09:23:34;18.02;;;7.38;;
66175;SDS011;52977;44.816;20.538;2024-01-15T09:26:01;18.02;;;7.30;;
66175;SDS011;52977;44.816;20.538;2024-01-15T09:28:28;16.60;;;6.93;;
66175;SDS011;52977;44.816;20.538;2024-01-15T09:30:54;15.55;;;6.53;;
66175;SDS011;52977;44.816;20.538;2024-01-15T09:33:21;15.57;;;7.13;;
66175;SDS011;52977;44.816;20.538;2024-01-15T09:35:46;17.92;;;7.55;;
66175;SDS011;52977;44.816;20.538;2024-01-15T09:38:12;19.70;;;8.93;;
66175;SDS011;52977;44.816;20.538;2024-01-15T09:40:38;24.35;;;10.25;;
66175;SDS011;52977;44.816;20.538;2024-01-15T09:43:09;30.17;;;12.73;;
66175;SDS011;52977;44.816;20.538;2024-01-15T09:45:36;22.20;;;10.00;;
66175;SDS011;52977;44.816;20.538;2024-01-15T09:48:02;22.15;;;9.85;;
66175;SDS011;52977;44.816;20.538;2024-01-15T09:50:30;18.88;;;9.38;;
66175;SDS011;52977;44.816;20.538;2024-01-15T09:52:56;21.48;;;9.30;;
66175;SDS011;52977;44.816;20.538;2024-01-15T09:55:23;20.33;;;9.13;;
66175;SDS011;52977;44.816;20.538;2024-01-15T09:57:52;22.23;;;9.68;;
66175;SDS011;52977;44.816;20.538;2024-01-15T10:00:21;22.13;;;10.30;;
66175;SDS011;52977;44.816;20.538;2024-01-15T10:02:49;22.23;;;10.77;;
66175;SDS011;52977;44.816;20.538;2024-01-15T10:05:15;27.35;;;12.73;;
66175;SDS011;52977;44.816;20.538;2024-01-15T10:07:41;23.38;;;10.82;;
66175;SDS011;52977;44.816;20.538;2024-01-15T10:10:08;30.70;;;13.55;;
66175;SDS011;52977;44.816;20.538;2024-01-15T10:12:36;24.77;;;10.60;;
66175;SDS011;52977;44.816;20.538;2024-01-15T10:15:02;28.92;;;14.05;;
66175;SDS011;52977;44.816;20.538;2024-01-15T10:17:29;32.65;;;14.52;;
66175;SDS011;52977;44.816;20.538;2024-01-15T10:19:56;41.05;;;18.23;;
66175;SDS011;52977;44.816;20.538;2024-01-15T10:22:22;36.88;;;15.60;;
66175;SDS011;52977;44.816;20.538;2024-01-15T10:24:49;37.33;;;17.23;;
66175;SDS011;52977;44.816;20.538;2024-01-15T10:27:15;33.20;;;16.52;;
66175;SDS011;52977;44.816;20.538;2024-01-15T10:29:42;36.33;;;16.08;;
66175;SDS011;52977;44.816;20.538;2024-01-15T10:32:08;41.55;;;17.55;;
66175;SDS011;52977;44.816;20.538;2024-01-15T10:34:37;36.95;;;16.83;;
66175;SDS011;52977;44.816;20.538;2024-01-15T10:37:06;48.33;;;19.67;;
66175;SDS011;52977;44.816;20.538;2024-01-15T10:39:33;37.47;;;17.67;;
66175;SDS011;52977;44.816;20.538;2024-01-15T10:41:59;40.92;;;18.13;;
66175;SDS011;52977;44.816;20.538;2024-01-15T10:44:25;49.67;;;20.60;;
66175;SDS011;52977;44.816;20.538;2024-01-15T10:46:52;45.20;;;18.85;;
66175;SDS011;52977;44.816;20.538;2024-01-15T10:49:20;42.00;;;17.98;;
66175;SDS011;52977;44.816;20.538;2024-01-15T10:51:47;41.80;;;19.70;;
66175;SDS011;52977;44.816;20.538;2024-01-15T10:54:15;44.05;;;20.27;;
66175;SDS011;52977;44.816;20.538;2024-01-15T10:56:42;39.45;;;17.98;;
66175;SDS011;52977;44.816;20.538;2024-01-15T10:59:11;39.00;;;17.50;;
66175;SDS011;52977;44.816;20.538;2024-01-15T11:01:38;38.92;;;16.70;;
66175;SDS011;52977;44.816;20.538;2024-01-15T11:04:04;56.20;;;23.60;;
66175;SDS011;52977;44.816;20.538;2024-01-15T11:06:40;54.55;;;25.33;;
66175;SDS011;52977;44.816;20.538;2024-01-15T11:09:18;62.70;;;28.45;;
66175;SDS011;52977;44.816;20.538;2024-01-15T11:11:45;79.72;;;36.53;;
66175;SDS011;52977;44.816;20.538;2024-01-15T11:17:23;80.95;;;37.08;;
66175;SDS011;52977;44.816;20.538;2024-01-15T11:19:49;80.20;;;35.35;;
66175;SDS011;52977;44.816;20.538;2024-01-15T11:25:01;66.75;;;24.23;;
66175;SDS011;52977;44.816;20.538;2024-01-15T11:27:52;73.68;;;27.05;;
66175;SDS011;52977;44.816;20.538;2024-01-15T11:30:19;54.55;;;21.63;;
66175;SDS011;52977;44.816;20.538;2024-01-15T11:32:48;59.00;;;23.10;;
66175;SDS011;52977;44.816;20.538;2024-01-15T11:35:15;39.97;;;17.40;;
66175;SDS011;52977;44.816;20.538;2024-01-15T11:43:04;31.80;;;15.18;;
66175;SDS011;52977;44.816;20.538;2024-01-15T11:45:31;35.72;;;16.00;;
66175;SDS011;52977;44.816;20.538;2024-01-15T11:50:31;39.97;;;17.98;;
66175;SDS011;52977;44.816;20.538;2024-01-15T11:53:02;44.15;;;19.08;;
66175;SDS011;52977;44.816;20.538;2024-01-15T11:55:34;43.47;;;19.60;;
66175;SDS011;52977;44.816;20.538;2024-01-15T11:58:07;48.50;;;22.38;;
66175;SDS011;52977;44.816;20.538;2024-01-15T12:00:44;54.28;;;23.48;;
66175;SDS011;52977;44.816;20.538;2024-01-15T12:03:12;46.05;;;20.85;;
66175;SDS011;52977;44.816;20.538;2024-01-15T12:05:38;44.28;;;20.83;;
66175;SDS011;52977;44.816;20.538;2024-01-15T12:08:05;48.25;;;22.42;;
66175;SDS011;52977;44.816;20.538;2024-01-15T12:10:38;50.42;;;23.48;;
66175;SDS011;52977;44.816;20.538;2024-01-15T12:15:35;56.22;;;26.48;;
66175;SDS011;52977;44.816;20.538;2024-01-15T12:18:02;52.78;;;25.02;;
66175;SDS011;52977;44.816;20.538;2024-01-15T12:20:29;56.13;;;27.30;;
66175;SDS011;52977;44.816;20.538;2024-01-15T12:22:56;54.08;;;26.52;;
66175;SDS011;52977;44.816;20.538;2024-01-15T12:25:24;60.67;;;24.83;;
66175;SDS011;52977;44.816;20.538;2024-01-15T12:27:53;50.10;;;23.10;;
66175;SDS011;52977;44.816;20.538;2024-01-15T12:30:20;50.92;;;22.80;;
66175;SDS011;52977;44.816;20.538;2024-01-15T12:32:47;46.63;;;22.25;;
66175;SDS011;52977;44.816;20.538;2024-01-15T12:35:14;52.78;;;22.90;;
66175;SDS011;52977;44.816;20.538;2024-01-15T12:37:42;50.08;;;22.67;;
66175;SDS011;52977;44.816;20.538;2024-01-15T12:40:09;47.22;;;22.23;;
66175;SDS011;52977;44.816;20.538;2024-01-15T12:42:36;47.45;;;22.23;;
66175;SDS011;52977;44.816;20.538;2024-01-15T12:45:05;63.30;;;30.10;;
66175;SDS011;52977;44.816;20.538;2024-01-15T12:47:31;54.78;;;25.23;;
66175;SDS011;52977;44.816;20.538;2024-01-15T12:49:58;58.20;;;25.92;;
66175;SDS011;52977;44.816;20.538;2024-01-15T12:52:27;59.28;;;26.17;;
66175;SDS011;52977;44.816;20.538;2024-01-15T12:54:54;62.97;;;27.50;;
66175;SDS011;52977;44.816;20.538;2024-01-15T12:57:21;53.45;;;25.35;;
66175;SDS011;52977;44.816;20.538;2024-01-15T12:59:48;50.55;;;25.17;;
66175;SDS011;52977;44.816;20.538;2024-01-15T13:02:15;53.63;;;24.67;;
66175;SDS011;52977;44.816;20.538;2024-01-15T13:04:41;66.20;;;28.98;;
66175;SDS011;52977;44.816;20.538;2024-01-15T13:07:08;64.40;;;29.63;;
66175;SDS011;52977;44.816;20.538;2024-01-15T13:09:35;65.40;;;28.98;;
66175;SDS011;52977;44.816;20.538;2024-01-15T13:12:02;60.33;;;25.38;;
66175;SDS011;52977;44.816;20.538;2024-01-15T13:14:28;48.72;;;21.67;;
66175;SDS011;52977;44.816;20.538;2024-01-15T13:16:55;45.15;;;20.23;;
66175;SDS011;52977;44.816;20.538;2024-01-15T13:19:22;40.72;;;18.88;;
66175;SDS011;52977;44.816;20.538;2024-01-15T13:21:48;44.30;;;19.55;;
66175;SDS011;52977;44.816;20.538;2024-01-15T13:24:17;45.08;;;19.58;;
66175;SDS011;52977;44.816;20.538;2024-01-15T13:26:44;44.60;;;19.48;;
66175;SDS011;52977;44.816;20.538;2024-01-15T13:29:11;41.83;;;19.75;;
66175;SDS011;52977;44.816;20.538;2024-01-15T13:31:37;44.30;;;19.10;;
66175;SDS011;52977;44.816;20.538;2024-01-15T13:34:04;42.08;;;17.58;;
66175;SDS011;52977;44.816;20.538;2024-01-15T13:36:30;37.53;;;17.23;;
66175;SDS011;52977;44.816;20.538;2024-01-15T13:38:56;36.22;;;17.48;;
66175;SDS011;52977;44.816;20.538;2024-01-15T13:41:23;35.60;;;16.75;;
66175;SDS011;52977;44.816;20.538;2024-01-15T13:43:54;35.92;;;16.85;;
66175;SDS011;52977;44.816;20.538;2024-01-15T13:46:23;43.22;;;18.77;;
66175;SDS011;52977;44.816;20.538;2024-01-15T13:48:52;44.55;;;19.00;;
66175;SDS011;52977;44.816;20.538;2024-01-15T13:51:21;41.38;;;17.60;;
66175;SDS011;52977;44.816;20.538;2024-01-15T13:53:48;49.75;;;19.10;;
66175;SDS011;52977;44.816;20.538;2024-01-15T13:56:15;49.70;;;20.00;;
66175;SDS011;52977;44.816;20.538;2024-01-15T13:58:41;46.58;;;19.88;;
66175;SDS011;52977;44.816;20.538;2024-01-15T14:01:08;52.38;;;20.65;;
66175;SDS011;52977;44.816;20.538;2024-01-15T14:03:36;46.50;;;20.30;;
66175;SDS011;52977;44.816;20.538;2024-01-15T14:06:02;49.92;;;20.08;;
66175;SDS011;52977;44.816;20.538;2024-01-15T14:08:30;52.33;;;20.83;;
66175;SDS011;52977;44.816;20.538;2024-01-15T14:10:56;47.97;;;20.50;;
66175;SDS011;52977;44.816;20.538;2024-01-15T14:13:23;47.08;;;20.30;;
66175;SDS011;52977;44.816;20.538;2024-01-15T14:15:49;40.33;;;18.70;;
66175;SDS011;52977;44.816;20.538;2024-01-15T14:18:16;43.75;;;19.38;;
66175;SDS011;52977;44.816;20.538;2024-01-15T14:20:43;40.53;;;19.15;;
66175;SDS011;52977;44.816;20.538;2024-01-15T14:23:09;40.70;;;18.60;;
66175;SDS011;52977;44.816;20.538;2024-01-15T14:25:35;39.35;;;18.85;;
66175;SDS011;52977;44.816;20.538;2024-01-15T14:28:02;38.33;;;18.38;;
66175;SDS011;52977;44.816;20.538;2024-01-15T14:30:28;49.97;;;23.13;;
66175;SDS011;52977;44.816;20.538;2024-01-15T14:32:55;46.50;;;21.05;;